Time;durP1;ratioP1;P1;durP2;ratioP2;P2;SDS_P1;SDS_P2;PMS_P1;PMS_P2;Temp;Humidity;BMP_temperature;BMP_pressure;BME280_temperature;BME280_humidity;BME280_pressure;Samples;Min_cycle;Max_cycle;Signal;HPM_P1;HPM_P2
2023/12/31 00:01:43;;;;;;;114.22;75.07;;;;;;;;;;5047929;28;20525;-70
2023/12/31 00:04:47;;;;;;;118.22;76.50;;;;;;;;;;5047650;28;20059;-68
2023/12/31 00:07:52;;;;;;;114.57;78.07;;;;;;;;;;5047535;28;20538;-69
2023/12/31 00:10:56;;;;;;;122.50;79.50;;;;;;;;;;5047826;28;20055;-69
2023/12/31 00:14:00;;;;;;;123.68;78.38;;;;;;;;;;5047646;28;20040;-69
2023/12/31 00:17:04;;;;;;;110.78;74.50;;;;;;;;;;5047604;28;20072;-68
2023/12/31 00:20:09;;;;;;;106.82;69.55;;;;;;;;;;5095168;28;20048;-70
2023/12/31 00:23:14;;;;;;;107.50;72.30;;;;;;;;;;5051129;28;20036;-68
2023/12/31 00:26:18;;;;;;;117.63;75.63;;;;;;;;;;5053266;28;20094;-69
2023/12/31 00:29:22;;;;;;;116.03;76.13;;;;;;;;;;5100282;27;20048;-69
2023/12/31 00:32:26;;;;;;;106.38;75.30;;;;;;;;;;5099352;27;20052;-69
2023/12/31 00:35:31;;;;;;;112.72;75.13;;;;;;;;;;5098830;27;20051;-69
2023/12/31 00:38:35;;;;;;;113.57;75.57;;;;;;;;;;5050800;28;20048;-69
2023/12/31 00:41:39;;;;;;;124.53;82.07;;;;;;;;;;5098673;27;20392;-69
2023/12/31 00:44:43;;;;;;;113.85;77.18;;;;;;;;;;5087077;28;20044;-68
2023/12/31 00:47:47;;;;;;;111.88;74.40;;;;;;;;;;5098832;27;20048;-70
2023/12/31 00:50:53;;;;;;;102.18;71.93;;;;;;;;;;5050499;28;20044;-70
2023/12/31 00:53:57;;;;;;;103.07;69.47;;;;;;;;;;5050390;28;20032;-69
2023/12/31 00:57:01;;;;;;;99.30;66.85;;;;;;;;;;5050748;28;20052;-69
2023/12/31 01:00:06;;;;;;;103.95;70.45;;;;;;;;;;5098307;27;20060;-69
2023/12/31 01:03:10;;;;;;;105.70;69.60;;;;;;;;;;5050988;28;20052;-69
2023/12/31 01:06:15;;;;;;;102.32;69.35;;;;;;;;;;5087024;27;20043;-70
2023/12/31 01:09:19;;;;;;;107.28;69.55;;;;;;;;;;5050294;28;20048;-70
2023/12/31 01:12:24;;;;;;;99.82;69.70;;;;;;;;;;5098217;27;20040;-70
2023/12/31 01:15:28;;;;;;;102.93;65.60;;;;;;;;;;5097801;27;20036;-70
2023/12/31 01:18:32;;;;;;;85.70;59.60;;;;;;;;;;5050206;28;20530;-69
2023/12/31 01:21:36;;;;;;;81.15;54.40;;;;;;;;;;5086209;27;20044;-68
2023/12/31 01:24:41;;;;;;;77.45;50.83;;;;;;;;;;5050268;28;20052;-69
2023/12/31 01:27:45;;;;;;;72.18;46.88;;;;;;;;;;5086328;28;20044;-69
2023/12/31 01:30:49;;;;;;;69.78;45.60;;;;;;;;;;5050306;28;20047;-68
2023/12/31 01:33:54;;;;;;;69.82;45.22;;;;;;;;;;5048812;28;20056;-69
2023/12/31 01:36:58;;;;;;;79.40;47.65;;;;;;;;;;5049885;28;20036;-69
2023/12/31 01:40:02;;;;;;;69.95;45.30;;;;;;;;;;5085455;28;20056;-70
2023/12/31 01:43:06;;;;;;;62.67;43.25;;;;;;;;;;5097624;27;20040;-70
2023/12/31 01:46:11;;;;;;;67.00;42.72;;;;;;;;;;5050137;28;20047;-70
2023/12/31 01:49:19;;;;;;;62.22;42.47;;;;;;;;;;5050014;28;20041;-69
2023/12/31 01:52:24;;;;;;;59.97;39.17;;;;;;;;;;5049582;28;20044;-69
2023/12/31 01:55:30;;;;;;;55.63;38.88;;;;;;;;;;5097177;27;20048;-69
2023/12/31 01:58:35;;;;;;;58.80;38.88;;;;;;;;;;5049870;28;20531;-69
2023/12/31 02:01:40;;;;;;;57.83;38.53;;;;;;;;;;5097397;27;20553;-69
2023/12/31 02:04:44;;;;;;;54.28;36.15;;;;;;;;;;5097106;27;20048;-69
2023/12/31 02:07:49;;;;;;;52.45;35.20;;;;;;;;;;5096753;27;20043;-69
2023/12/31 02:10:53;;;;;;;53.05;36.60;;;;;;;;;;5049103;28;20428;-69
2023/12/31 02:13:58;;;;;;;52.35;36.55;;;;;;;;;;5096671;27;20036;-70
2023/12/31 02:17:02;;;;;;;50.20;34.78;;;;;;;;;;5084795;28;20067;-69
2023/12/31 02:20:08;;;;;;;54.13;37.90;;;;;;;;;;5048888;28;20064;-71
2023/12/31 02:23:12;;;;;;;60.08;38.10;;;;;;;;;;5096578;27;20056;-70
2023/12/31 02:26:17;;;;;;;57.30;36.83;;;13.50;99.90;;;;;;5048850;28;20396;-69
2023/12/31 02:29:24;;;;;;;53.80;34.42;;;;;;;;;;5094911;27;20040;-70
2023/12/31 02:32:28;;;;;;;51.55;34.00;;;;;;;;;;5048588;28;20052;-69
2023/12/31 02:35:33;;;;;;;54.47;35.15;;;;;;;;;;5048789;28;20044;-70
2023/12/31 02:38:37;;;;;;;48.70;34.08;;;;;;;;;;5048620;28;20548;-69
2023/12/31 02:41:41;;;;;;;61.83;35.42;;;;;;;;;;5048677;28;20059;-69
2023/12/31 02:44:46;;;;;;;54.28;34.60;;;;;;;;;;5048158;28;20044;-69
2023/12/31 02:47:50;;;;;;;52.53;34.50;;;;;;;;;;5096446;27;20044;-69
2023/12/31 02:50:55;;;;;;;52.67;34.58;;;;;;;;;;5096071;27;20550;-69
2023/12/31 02:53:59;;;;;;;48.78;34.10;;;;;;;;;;5095824;27;20500;-70
2023/12/31 02:57:07;;;;;;;52.70;35.17;;;;;;;;;;5048450;28;20514;-68
2023/12/31 03:00:11;;;;;;;58.13;36.47;;;;;;;;;;5048153;28;20063;-70
2023/12/31 03:03:15;;;;;;;57.45;35.80;;;;;;;;;;5095766;27;20048;-70
2023/12/31 03:06:20;;;;;;;58.83;36.97;;;;;;;;;;5095725;27;20059;-68
2023/12/31 03:09:24;;;;;;;56.15;37.70;;;;;;;;;;5048267;28;20048;-68
2023/12/31 03:12:29;;;;;;;59.67;40.85;;;;;;;;;;5048253;28;20515;-68
2023/12/31 03:15:33;;;;;;;57.45;39.58;;;;;;;;;;5095523;27;20048;-68
2023/12/31 03:18:37;;;;;;;60.53;39.67;;;;;;;;;;5048027;28;20519;-69
2023/12/31 03:21:42;;;;;;;64.20;41.15;;;13.20;99.90;;;;;;5048114;28;20388;-69
2023/12/31 03:24:46;;;;;;;59.80;42.25;;;;;;;;;;5047943;28;20048;-69
2023/12/31 03:27:51;;;;;;;75.10;47.72;;;;;;;;;;5048016;28;20523;-69
2023/12/31 03:30:55;;;;;;;81.97;51.30;;;;;;;;;;5083484;28;20056;-69
2023/12/31 03:33:59;;;;;;;78.50;49.38;;;;;;;;;;5047717;28;20044;-69
2023/12/31 03:37:04;;;;;;;76.88;47.40;;;;;;;;;;5047763;28;20048;-69
2023/12/31 03:40:09;;;;;;;84.78;47.53;;;;;;;;;;5047484;28;20051;-69
2023/12/31 03:43:13;;;;;;;72.20;45.55;;;;;;;;;;5095166;27;20409;-69
2023/12/31 03:46:18;;;;;;;67.25;43.55;;;;;;;;;;5047548;28;20044;-69
2023/12/31 03:49:22;;;;;;;58.42;40.55;;;;;;;;;;5047568;28;20047;-69
2023/12/31 03:52:27;;;;;;;70.97;43.15;;;;;;;;;;5047495;28;20044;-69
2023/12/31 03:55:31;;;;;;;70.15;42.95;;;;;;;;;;5095003;28;20044;-69
2023/12/31 03:58:36;;;;;;;61.08;39.58;;;;;;;;;;5050972;28;20040;-69
2023/12/31 04:01:45;;;;;;;63.38;41.88;;;13.20;99.90;;;;;;5087639;28;20052;-68
2023/12/31 04:04:50;;;;;;;61.53;39.13;;;;;;;;;;5051418;28;20613;-68
2023/12/31 04:07:55;;;;;;;65.85;40.25;;;;;;;;;;5050975;28;20061;-69
2023/12/31 04:10:59;;;;;;;60.10;40.00;;;;;;;;;;5051387;28;20052;-69
2023/12/31 04:14:04;;;;;;;60.33;40.53;;;;;;;;;;5050986;28;20368;-69
2023/12/31 04:17:08;;;;;;;62.58;40.97;;;;;;;;;;5098862;27;20052;-68
2023/12/31 04:20:13;;;;;;;62.47;42.20;;;;;;;;;;5050531;28;20071;-69
2023/12/31 04:23:17;;;;;;;62.05;41.33;;;;;;;;;;5050743;28;20388;-69
2023/12/31 04:26:22;;;;;;;63.75;40.70;;;;;;;;;;5050582;28;20052;-69
2023/12/31 04:29:29;;;;;;;59.10;39.75;;;13.20;99.90;;;;;;5050805;28;20044;-69
2023/12/31 04:32:33;;;;;;;62.00;40.58;;;;;;;;;;5050282;28;20036;-68
2023/12/31 04:35:38;;;;;;;59.17;40.70;;;;;;;;;;5097862;27;20044;-69
2023/12/31 04:38:43;;;;;;;58.70;40.25;;;;;;;;;;5050266;28;20147;-68
2023/12/31 04:41:47;;;;;;;59.38;39.17;;;;;;;;;;5050580;28;20096;-68
2023/12/31 04:44:51;;;;;;;55.13;39.53;;;;;;;;;;5098073;27;20048;-68
2023/12/31 04:47:57;;;;;;;60.47;39.58;;;;;;;;;;5050559;28;20052;-69
2023/12/31 04:51:01;;;;;;;54.38;38.72;;;;;;;;;;5098109;27;20522;-69
2023/12/31 04:54:05;;;;;;;54.97;38.13;;;;;;;;;;5050272;28;20040;-69
2023/12/31 04:57:10;;;;;;;62.28;39.28;;;;;;;;;;5086535;28;20067;-69
2023/12/31 05:00:15;;;;;;;63.10;40.72;;;13.30;99.90;;;;;;5086083;28;20052;-70
2023/12/31 05:03:20;;;;;;;59.22;39.63;;;;;;;;;;5049840;28;20048;-70
2023/12/31 05:06:25;;;;;;;67.60;41.22;;;12.90;99.90;;;;;;5085575;28;20523;-69
2023/12/31 05:09:29;;;;;;;63.65;40.75;;;;;;;;;;5073919;28;20048;-68
2023/12/31 05:12:34;;;;;;;64.45;42.58;;;;;;;;;;5049938;28;20479;-69
2023/12/31 05:15:39;;;;;;;60.45;40.58;;;;;;;;;;5049909;28;20052;-69
2023/12/31 05:18:46;;;;;;;60.58;41.45;;;12.90;99.90;;;;;;5049622;28;20404;-69
2023/12/31 05:21:50;;;;;;;60.10;40.78;;;;;;;;;;5097522;27;20060;-69
2023/12/31 05:24:55;;;;;;;64.47;42.22;;;;;;;;;;5097723;27;20036;-69
2023/12/31 05:27:59;;;;;;;59.72;42.45;;;;;;;;;;5097749;27;20048;-68
2023/12/31 05:31:04;;;;;;;63.50;41.13;;;;;;;;;;5049689;28;20044;-69
2023/12/31 05:34:10;;;;;;;63.85;41.75;;;12.40;99.90;;;;;;5049655;28;20047;-69
2023/12/31 05:37:15;;;;;;;58.90;42.25;;;;;;;;;;5049511;28;20060;-69
2023/12/31 05:40:20;;;;;;;63.78;41.83;;;;;;;;;;5096970;27;20048;-69
2023/12/31 05:43:45;;;;;;;59.50;41.05;;;12.70;99.90;;;;;;5049388;28;20044;-69
2023/12/31 05:46:49;;;;;;;62.90;41.15;;;;;;;;;;5049645;28;20397;-68
2023/12/31 05:49:54;;;;;;;59.75;42.28;;;;;;;;;;5096666;27;20044;-70
2023/12/31 05:52:58;;;;;;;66.38;43.42;;;;;;;;;;5049446;28;20048;-68
2023/12/31 05:56:03;;;;;;;67.53;42.58;;;;;;;;;;5049389;28;20110;-69
2023/12/31 05:59:07;;;;;;;63.83;42.13;;;;;;;;;;5049095;28;20044;-69
2023/12/31 06:02:11;;;;;;;69.10;42.05;;;;;;;;;;5049232;28;20067;-69
2023/12/31 06:05:17;;;;;;;75.63;51.33;;;;;;;;;;5048809;28;20044;-69
2023/12/31 06:08:22;;;;;;;76.43;50.00;;;;;;;;;;5048678;28;20048;-70
2023/12/31 06:11:27;;;;;;;76.65;45.78;;;;;;;;;;5049183;28;20404;-69
2023/12/31 06:14:31;;;;;;;68.78;43.65;;;;;;;;;;5048752;28;20044;-69
2023/12/31 06:17:35;;;;;;;62.05;44.92;;;;;;;;;;5084266;28;20056;-71
2023/12/31 06:20:39;;;;;;;68.25;45.03;;;;;;;;;;5048044;28;20147;-69
2023/12/31 06:23:44;;;;;;;72.43;45.20;;;;;;;;;;5048795;28;20036;-69
2023/12/31 06:26:48;;;;;;;74.90;46.45;;;;;;;;;;5048767;28;20048;-68
2023/12/31 06:29:53;;;;;;;68.20;44.70;;;;;;;;;;5048853;28;20110;-69
2023/12/31 06:32:58;;;;;;;67.43;44.45;;;;;;;;;;5084401;28;20044;-69
2023/12/31 06:36:02;;;;;;;77.95;46.10;;;;;;;;;;5048623;28;20507;-69
2023/12/31 06:39:07;;;;;;;72.63;46.20;;;;;;;;;;5048724;28;20048;-70
2023/12/31 06:42:11;;;;;;;72.32;47.80;;;;;;;;;;5048259;28;20048;-70
2023/12/31 06:45:16;;;;;;;69.03;47.20;;;;;;;;;;5095767;27;20035;-69
2023/12/31 06:48:20;;;;;;;74.35;49.42;;;;;;;;;;5072696;28;20048;-69
2023/12/31 06:51:25;;;;;;;70.38;48.83;;;;;;;;;;5048423;28;20036;-69
2023/12/31 06:54:29;;;;;;;78.32;49.70;;;;;;;;;;5048570;28;20048;-69
2023/12/31 06:57:34;;;;;;;70.75;47.30;;;;;;;;;;5048569;28;20048;-70
2023/12/31 07:00:42;;;;;;;83.20;47.67;;;;;;;;;;5048226;28;20055;-70
2023/12/31 07:03:47;;;;;;;76.15;47.58;;;;;;;;;;5048622;28;20114;-69
2023/12/31 07:06:51;;;;;;;69.35;48.03;;;;;;;;;;5048398;28;20395;-69
2023/12/31 07:09:56;;;;;;;77.55;49.80;;;;;;;;;;5048470;28;20110;-69
2023/12/31 07:13:00;;;;;;;73.40;48.58;;;;;;;;;;5048253;28;20048;-70
2023/12/31 07:16:04;;;;;;;80.15;50.75;;;;;;;;;;5047830;28;20040;-70
2023/12/31 07:19:08;;;;;;;83.88;52.83;;;;;;;;;;5048033;28;20073;-70
2023/12/31 07:22:13;;;;;;;76.88;52.45;;;;;;;;;;5048143;28;20040;-69
2023/12/31 07:25:18;;;;;;;78.53;51.88;;;;;;;;;;5094792;27;20036;-69
2023/12/31 07:28:23;;;;;;;85.22;53.90;;;;;;;;;;5048015;28;20404;-69
2023/12/31 07:31:27;;;;;;;84.05;55.33;;;;;;;;;;5095211;27;20064;-70
2023/12/31 07:34:32;;;;;;;83.85;55.45;;;;;;;;;;5047489;28;20040;-69
2023/12/31 07:37:38;;;;;;;80.55;55.50;;;;;;;;;;5095156;27;20503;-69
2023/12/31 07:40:43;;;;;;;87.03;55.35;;;;;;;;;;5047470;28;20048;-69
2023/12/31 07:43:47;;;;;;;82.90;55.08;;;;;;;;;;5047838;28;20040;-69
2023/12/31 07:46:51;;;;;;;81.00;54.78;;;;;;;;;;5048097;28;20052;-68
2023/12/31 07:49:56;;;;;;;81.82;54.65;;;;;;;;;;5095341;27;20048;-69
2023/12/31 07:53:00;;;;;;;85.10;56.47;;;;;;;;;;5047734;28;20044;-69
2023/12/31 07:56:04;;;;;;;83.45;55.53;;;13.30;99.90;;;;;;5047760;28;20044;-69
2023/12/31 07:59:09;;;;;;;85.03;56.60;;;;;;;;;;5047615;28;20056;-68
2023/12/31 08:02:13;;;;;;;77.85;55.17;;;;;;;;;;5048015;28;20056;-69
2023/12/31 08:05:17;;;;;;;80.45;55.28;;;;;;;;;;5047971;28;20040;-69
2023/12/31 08:08:22;;;;;;;85.95;55.75;;;;;;;;;;5047584;28;20075;-69
2023/12/31 08:11:27;;;;;;;77.63;54.75;;;;;;;;;;5094991;28;20060;-69
2023/12/31 08:14:31;;;;;;;77.05;55.25;;;;;;;;;;5047758;28;20047;-68
2023/12/31 08:17:35;;;;;;;75.97;53.15;;;;;;;;;;5047609;28;20064;-68
2023/12/31 08:20:40;;;;;;;86.78;57.00;;;;;;;;;;5047523;28;20052;-67
2023/12/31 08:23:44;;;;;;;82.15;54.38;;;;;;;;;;5047561;28;20143;-68
2023/12/31 08:26:48;;;;;;;78.90;54.70;;;;;;;;;;5047706;28;20052;-68
2023/12/31 08:29:53;;;;;;;82.22;54.28;;;;;;;;;;5047302;28;20048;-68
2023/12/31 08:32:59;;;;;;;80.20;54.70;;;12.60;99.90;;;;;;5047421;28;20052;-69
2023/12/31 08:36:04;;;;;;;84.65;54.25;;;;;;;;;;5095470;28;20044;-69
2023/12/31 08:39:09;;;;;;;76.30;52.70;;;;;;;;;;5047440;28;20048;-70
2023/12/31 08:42:13;;;;;;;74.43;49.83;;;;;;;;;;5047368;28;20511;-70
2023/12/31 08:45:17;;;;;;;70.45;46.22;;;;;;;;;;5049610;28;20052;-71
2023/12/31 08:48:22;;;;;;;72.45;48.78;;;;;;;;;;5097651;27;20705;-69
2023/12/31 08:51:27;;;;;;;66.13;47.92;;;;;;;;;;5049107;28;20487;-70
2023/12/31 08:54:33;;;;;;;68.68;47.38;;;;;;;;;;5097424;27;20036;-70
2023/12/31 08:57:41;;;;;;;64.30;42.53;;;16.00;99.90;;;;;;5050146;28;20051;-69
2023/12/31 09:00:45;;;;;;;62.40;42.90;;;;;;;;;;5097466;27;20048;-70
2023/12/31 09:03:49;;;;;;;56.97;40.90;;;;;;;;;;5098228;27;20373;-70
2023/12/31 09:06:54;;;;;;;58.00;38.70;;;;;;;;;;5097965;27;20048;-70
2023/12/31 09:09:59;;;;;;;50.97;34.28;;;;;;;;;;5050655;28;20052;-70
2023/12/31 09:13:03;;;;;;;50.97;36.65;;;;;;;;;;5098390;27;20051;-69
2023/12/31 09:16:07;;;;;;;54.15;36.75;;;;;;;;;;5050237;28;20047;-71
2023/12/31 09:19:12;;;;;;;43.03;30.80;;;;;;;;;;5050474;28;20048;-70
2023/12/31 09:22:16;;;;;;;51.45;33.58;;;;;;;;;;5049748;28;20048;-70
2023/12/31 09:25:23;;;;;;;39.30;29.30;;;;;;;;;;5049925;28;20044;-71
2023/12/31 09:28:27;;;;;;;38.10;27.80;;;;;;;;;;5049985;28;20044;-70
2023/12/31 09:31:33;;;;;;;39.15;27.80;;;;;;;;;;5050125;28;20043;-69
2023/12/31 09:34:38;;;;;;;32.20;24.08;;;;;;;;;;5050044;28;20056;-70
2023/12/31 09:37:42;;;;;;;29.50;21.15;;;;;;;;;;5050032;28;20040;-71
2023/12/31 09:40:47;;;;;;;32.25;20.10;;;;;;;;;;5049613;28;20056;-70
2023/12/31 09:43:52;;;;;;;30.80;20.63;;;;;;;;;;5049825;28;20077;-71
2023/12/31 09:47:06;;;;;;;29.15;21.23;;;15.50;99.90;;;;;;5049588;28;20052;-71
2023/12/31 09:50:11;;;;;;;;;;;;;;;;;;5049894;28;20056;-69
2023/12/31 09:53:16;;;;;;;28.67;20.30;;;;;;;;;;5097546;27;20283;-69
2023/12/31 09:56:24;;;;;;;28.85;20.27;;;;;;;;;;5049461;28;20397;-71
2023/12/31 09:59:29;;;;;;;26.02;19.95;;;;;;;;;;5097193;27;20052;-70
2023/12/31 10:02:33;;;;;;;26.92;19.83;;;;;;;;;;5097491;27;20055;-69
2023/12/31 10:05:38;;;;;;;31.33;22.45;;;;;;;;;;5049494;28;20041;-70
2023/12/31 10:08:42;;;;;;;39.92;26.98;;;;;;;;;;5049207;28;20072;-71
2023/12/31 10:11:47;;;;;;;39.28;26.23;;;;;;;;;;5049088;28;20495;-69
2023/12/31 10:14:52;;;;;;;41.65;29.88;;;;;;;;;;5049034;28;20513;-70
2023/12/31 10:17:59;;;;;;;37.67;25.55;;;;;;;;;;5049164;28;20059;-70
2023/12/31 10:21:03;;;;;;;32.03;23.65;;;;;;;;;;5049185;28;20056;-71
2023/12/31 10:24:08;;;;;;;36.63;24.52;;;;;;;;;;5048973;28;20048;-71
2023/12/31 10:27:12;;;;;;;40.55;27.27;;;;;;;;;;5048718;28;20099;-71
2023/12/31 10:30:18;;;;;;;40.10;28.45;;;;;;;;;;5048690;28;20044;-75
2023/12/31 10:33:28;;;;;;;37.55;28.10;;;;;;;;;;5048774;28;20388;-70
2023/12/31 10:36:36;;;;;;;37.53;27.13;;;;;;;;;;5048994;28;20388;-70
2023/12/31 10:39:41;;;;;;;43.97;27.73;;;;;;;;;;5096813;27;20451;-70
2023/12/31 10:42:58;;;;;;;42.05;27.65;;;15.60;99.90;;;;;;5048441;28;20048;-70
2023/12/31 10:46:02;;;;;;;33.92;25.80;;;;;;;;;;5048710;28;20040;-70
2023/12/31 10:49:08;;;;;;;40.22;28.27;;;;;;;;;;5048503;28;20046;-70
2023/12/31 10:52:14;;;;;;;42.42;27.85;;;;;;;;;;5048455;28;20143;-71
2023/12/31 10:55:18;;;;;;;39.30;27.10;;;;;;;;;;5048504;28;20036;-71
2023/12/31 10:58:22;;;;;;;33.60;24.55;;;;;;;;;;5095327;27;20044;-71
2023/12/31 11:01:28;;;;;;;44.60;30.23;;;;;;;;;;5048233;28;20056;-71
2023/12/31 11:04:32;;;;;;;39.13;28.98;;;;;;;;;;5048545;28;20503;-71
2023/12/31 11:07:37;;;;;;;36.20;27.50;;;;;;;;;;5048596;28;20048;-70
2023/12/31 11:10:41;;;;;;;37.90;28.92;;;;;;;;;;5048574;28;20060;-69
2023/12/31 11:13:49;;;;;;;43.80;30.25;;;;;;;;;;5048567;28;20495;-71
2023/12/31 11:16:54;;;;;;;37.05;27.05;;;;;;;;;;5048204;28;20060;-72
2023/12/31 11:20:13;;;;;;;34.10;24.90;;;;;;;;;;5095873;27;20040;-70
2023/12/31 11:23:23;;;;;;;31.73;23.13;;;16.10;99.90;;;;;;5048126;28;20048;-70
2023/12/31 11:26:28;;;;;;;30.30;22.97;;;;;;;;;;5048286;28;20044;-71
2023/12/31 11:29:36;;;;;;;31.35;21.58;;;;;;;;;;5047936;28;20052;-70
2023/12/31 11:32:41;;;;;;;24.38;19.35;;;;;;;;;;5048251;28;20124;-70
2023/12/31 11:35:46;;;;;;;25.98;18.88;;;;;;;;;;5047939;28;20048;-70
2023/12/31 11:38:56;;;;;;;24.98;18.92;;;16.30;99.90;;;;;;5048058;28;20044;-70
2023/12/31 11:42:04;;;;;;;38.03;23.55;;;;;;;;;;5047492;28;20424;-70
2023/12/31 11:45:28;;;;;;;32.60;24.48;;;;;;;;;;5048235;28;20036;-70
2023/12/31 11:48:32;;;;;;;32.83;24.50;;;;;;;;;;5047594;28;20159;-70
2023/12/31 11:51:52;;;;;;;36.95;26.23;;;;;;;;;;5047730;28;20396;-71
2023/12/31 11:54:58;;;;;;;32.97;23.90;;;;;;;;;;5095273;28;20044;-71
2023/12/31 11:58:03;;;;;;;27.98;21.42;;;;;;;;;;5047657;28;20040;-71
2023/12/31 12:01:09;;;;;;;26.65;20.65;;;;;;;;;;5094304;28;20052;-70
2023/12/31 12:04:14;;;;;;;30.83;22.05;;;;;;;;;;5047278;28;20044;-70
2023/12/31 12:07:18;;;;;;;29.35;22.40;;;;;;;;;;5094869;28;20040;-71
2023/12/31 12:10:23;;;;;;;36.42;23.23;;;;;;;;;;5047637;28;20044;-71
2023/12/31 12:13:27;;;;;;;30.63;22.08;;;;;;;;;;5095656;28;20052;-71
2023/12/31 12:16:34;;;;;;;20.77;14.88;;;;;;;;;;5093644;28;20059;-71
2023/12/31 12:19:38;;;;;;;16.63;10.45;;;;;;;;;;5050994;28;20043;-71
2023/12/31 12:22:42;;;;;;;17.25;8.63;;;;;;;;;;5051296;28;20048;-70
2023/12/31 12:25:47;;;;;;;10.02;7.10;;;;;;;;;;5051483;28;20033;-71
2023/12/31 12:28:55;;;;;;;11.68;6.75;;;;;;;;;;5051377;28;20048;-71
2023/12/31 12:32:02;;;;;;;8.60;5.88;;;;;;;;;;5051004;28;20041;-71
2023/12/31 12:35:08;;;;;;;13.77;8.45;;;;;;;;;;5051207;28;20037;-70
2023/12/31 12:38:12;;;;;;;11.75;7.65;;;16.50;99.50;;;;;;5050994;28;20040;-71
2023/12/31 12:41:24;;;;;;;10.25;6.90;;;15.00;99.20;;;;;;5099091;27;20064;-70
2023/12/31 12:44:28;;;;;;;;;;;;;;;;;;5051241;28;20040;-70
2023/12/31 12:47:32;;;;;;;10.10;6.88;;;;;;;;;;5051184;28;19916;-70
2023/12/31 12:50:36;;;;;;;8.63;6.45;;;;;;;;;;5051297;28;20048;-70
2023/12/31 12:53:41;;;;;;;8.43;6.38;;;;;;;;;;5051197;28;20045;-70
2023/12/31 12:56:45;;;;;;;11.52;7.18;;;;;;;;;;5086613;28;20041;-70
2023/12/31 12:59:49;;;;;;;8.93;6.57;;;;;;;;;;5050953;28;20037;-71
2023/12/31 13:02:55;;;;;;;9.15;6.38;;;;;;;;;;5050315;28;20045;-70
2023/12/31 13:05:59;;;;;;;9.40;5.63;;;;;;;;;;5086202;28;20037;-70
2023/12/31 13:09:03;;;;;;;12.25;5.72;;;;;;;;;;5050360;28;20037;-71
2023/12/31 13:12:08;;;;;;;9.55;6.57;;;;;;;;;;5050402;28;20041;-69
2023/12/31 13:15:13;;;;;;;11.32;5.75;;;;;;;;;;5050260;28;20037;-72
2023/12/31 13:18:17;;;;;;;9.63;6.22;;;;;;;;;;5050060;28;20060;-71
2023/12/31 13:21:22;;;;;;;12.57;6.63;;;;;;;;;;5050278;28;20052;-69
2023/12/31 13:24:26;;;;;;;12.40;7.38;;;;;;;;;;5050371;28;20330;-71
2023/12/31 13:27:31;;;;;;;9.13;6.00;;;;;;;;;;5050694;28;20087;-71
2023/12/31 13:30:35;;;;;;;14.13;7.10;;;;;;;;;;5050278;28;20029;-71
2023/12/31 13:33:42;;;;;;;15.88;7.60;;;;;;;;;;5050289;28;20037;-71
2023/12/31 13:36:49;;;;;;;13.35;7.25;;;;;;;;;;5050218;28;20041;-70
2023/12/31 13:39:53;;;;;;;17.73;11.77;;;;;;;;;;5049938;28;20041;-71
2023/12/31 13:42:58;;;;;;;15.98;12.10;;;;;;;;;;5049907;28;20526;-71
2023/12/31 13:46:03;;;;;;;12.05;10.00;;;;;;;;;;5050041;28;20044;-70
2023/12/31 13:49:07;;;;;;;12.75;7.78;;;;;;;;;;5050037;28;20052;-71
2023/12/31 13:52:12;;;;;;;20.35;11.38;;;;;;;;;;5097904;27;20041;-70
2023/12/31 13:55:16;;;;;;;12.80;9.13;;;;;;;;;;5049842;28;20384;-70
2023/12/31 13:58:21;;;;;;;22.33;14.05;;;;;;;;;;5049517;28;20114;-71
2023/12/31 14:01:25;;;;;;;20.45;13.75;;;;;;;;;;5049465;28;20052;-70
2023/12/31 14:04:29;;;;;;;21.88;13.85;;;;;;;;;;5097191;27;20044;-71
2023/12/31 14:07:34;;;;;;;14.88;11.57;;;;;;;;;;5049269;28;20044;-71
2023/12/31 14:10:38;;;;;;;15.32;8.73;;;;;;;;;;5049786;28;20072;-71
2023/12/31 14:13:42;;;;;;;17.60;7.88;;;;;;;;;;5049255;28;20469;-70
2023/12/31 14:16:47;;;;;;;17.70;9.07;;;;;;;;;;5049528;28;20052;-71
2023/12/31 14:19:52;;;;;;;12.15;8.02;;;;;;;;;;5049420;28;20051;-70
2023/12/31 14:22:57;;;;;;;13.70;8.93;;;;;;;;;;5049082;28;20044;-71
2023/12/31 14:26:01;;;;;;;13.85;8.45;;;;;;;;;;5097134;27;20029;-71
2023/12/31 14:29:05;;;;;;;10.93;7.53;;;;;;;;;;5096430;27;20345;-70
2023/12/31 14:32:10;;;;;;;13.77;8.70;;;;;;;;;;5049004;28;20526;-70
2023/12/31 14:35:14;;;;;;;13.43;7.85;;;;;;;;;;5048896;28;20038;-71
2023/12/31 14:38:19;;;;;;;15.02;7.22;;;;;;;;;;5049168;28;20037;-71
2023/12/31 14:41:23;;;;;;;11.65;6.65;;;;;;;;;;5048199;28;20045;-70
2023/12/31 14:44:29;;;;;;;11.38;7.47;;;;;;;;;;5049116;28;20033;-71
2023/12/31 14:47:33;;;;;;;13.68;7.63;;;;;;;;;;5096435;27;20366;-70
2023/12/31 14:50:38;;;;;;;9.73;7.65;;;;;;;;;;5048983;28;20048;-70
2023/12/31 14:53:42;;;;;;;10.05;7.07;;;;;;;;;;5048821;28;20549;-71
2023/12/31 14:56:47;;;;;;;12.57;9.23;;;;;;;;;;5049183;28;20045;-70
2023/12/31 14:59:51;;;;;;;14.30;9.48;;;;;;;;;;5096304;27;20040;-71
2023/12/31 15:02:55;;;;;;;15.77;10.57;;;;;;;;;;5048279;28;20052;-71
2023/12/31 15:06:00;;;;;;;19.63;11.60;;;;;;;;;;5048302;28;20476;-71
2023/12/31 15:09:05;;;;;;;14.68;10.40;;;;;;;;;;5096149;27;20416;-71
2023/12/31 15:12:13;;;;;;;13.07;9.25;;;;;;;;;;5048191;28;20040;-71
2023/12/31 15:15:17;;;;;;;22.08;13.32;;;;;;;;;;5048380;28;20037;-70
2023/12/31 15:18:21;;;;;;;17.92;11.77;;;;;;;;;;5048410;28;20056;-70
2023/12/31 15:21:26;;;;;;;16.33;12.10;;;;;;;;;;5095897;27;20052;-70
2023/12/31 15:24:30;;;;;;;29.20;17.77;;;;;;;;;;5048309;28;20044;-72
2023/12/31 15:27:34;;;;;;;32.25;20.02;;;;;;;;;;5096277;27;20052;-69
2023/12/31 15:30:38;;;;;;;25.73;19.27;;;;;;;;;;5048498;28;20048;-71
2023/12/31 15:33:43;;;;;;;28.52;19.17;;;;;;;;;;5048101;28;20044;-70
2023/12/31 15:36:47;;;;;;;30.52;22.42;;;;;;;;;;5048250;28;20499;-70
2023/12/31 15:39:51;;;;;;;54.42;32.55;;;;;;;;;;5048393;28;20392;-71
2023/12/31 15:42:56;;;;;;;41.55;29.52;;;;;;;;;;5048032;28;20052;-72
2023/12/31 15:46:03;;;;;;;42.47;27.60;;;;;;;;;;5094132;27;20060;-71
2023/12/31 15:49:07;;;;;;;44.65;30.00;;;;;;;;;;5047979;28;20389;-72
2023/12/31 15:52:12;;;;;;;52.83;36.30;;;;;;;;;;5046819;28;20056;-71
2023/12/31 15:55:16;;;;;;;57.25;41.53;;;;;;;;;;5048131;28;20043;-71
2023/12/31 15:58:20;;;;;;;51.25;35.97;;;;;;;;;;5048051;28;20040;-71
2023/12/31 16:01:25;;;;;;;51.00;35.15;;;;;;;;;;5047657;28;20056;-70
2023/12/31 16:04:30;;;;;;;55.60;36.05;;;;;;;;;;5048099;28;20033;-70
2023/12/31 16:07:35;;;;;;;72.50;39.10;;;;;;;;;;5095260;27;20056;-71
2023/12/31 16:10:39;;;;;;;52.30;36.42;;;;;;;;;;5048030;28;20044;-70
2023/12/31 16:13:44;;;;;;;60.03;39.45;;;;;;;;;;5047581;28;20086;-70
2023/12/31 16:16:48;;;;;;;52.55;36.67;;;;;;;;;;5047334;28;20060;-70
2023/12/31 16:19:52;;;;;;;57.35;38.97;;;;;;;;;;5048087;28;20036;-70
2023/12/31 16:22:57;;;;;;;55.25;38.10;;;;;;;;;;5047612;28;20059;-70
2023/12/31 16:26:01;;;;;;;69.05;39.78;;;;;;;;;;5047740;28;20048;-71
2023/12/31 16:29:05;;;;;;;58.22;37.05;;;;;;;;;;5047764;28;20052;-71
2023/12/31 16:32:10;;;;;;;48.78;31.67;;;;;;;;;;5047628;28;20052;-71
2023/12/31 16:35:14;;;;;;;43.42;29.30;;;;;;;;;;5047671;28;20055;-70
2023/12/31 16:38:18;;;;;;;38.58;27.65;;;;;;;;;;5047768;28;20388;-71
2023/12/31 16:41:24;;;;;;;34.60;24.23;;;;;;;;;;5047429;28;20412;-69
2023/12/31 16:44:28;;;;;;;53.65;33.83;;;;;;;;;;5047149;28;20040;-71
2023/12/31 16:47:35;;;;;;;50.10;34.25;;;;;;;;;;5047395;28;20051;-70
2023/12/31 16:50:39;;;;;;;58.38;39.08;;;;;;;;;;5047493;28;20044;-70
2023/12/31 16:53:44;;;;;;;64.07;43.15;;;;;;;;;;5047485;28;20040;-70
2023/12/31 16:56:48;;;;;;;55.42;38.85;;;;;;;;;;5095139;28;20045;-71
2023/12/31 16:59:52;;;;;;;58.13;38.88;;;;;;;;;;5047078;28;20036;-70
2023/12/31 17:02:57;;;;;;;47.80;32.15;;;;;;;;;;5047610;28;20484;-69
2023/12/31 17:06:01;;;;;;;40.47;28.17;;;;;;;;;;5050800;28;20036;-71
2023/12/31 17:09:05;;;;;;;46.13;33.17;;;;;;;;;;5050755;28;20040;-69
2023/12/31 17:12:10;;;;;;;46.05;31.95;;;;;;;;;;5050726;28;20044;-70
2023/12/31 17:15:15;;;;;;;48.45;34.38;;;;;;;;;;5050716;28;20048;-70
2023/12/31 17:18:19;;;;;;;53.47;35.08;;;;;;;;;;5097854;27;20048;-70
2023/12/31 17:21:24;;;;;;;47.75;33.35;;;;;;;;;;5050207;28;20060;-70
2023/12/31 17:24:29;;;;;;;46.97;32.40;;;;;;;;;;5050152;28;20397;-69
2023/12/31 17:27:33;;;;;;;44.25;31.83;;;;;;;;;;5097027;27;20052;-71
2023/12/31 17:30:37;;;;;;;63.55;38.97;;;;;;;;;;5098078;27;20051;-69
2023/12/31 17:33:42;;;;;;;55.03;37.25;;;;;;;;;;5049921;28;20044;-71
2023/12/31 17:36:46;;;;;;;53.90;36.72;;;;;;;;;;5085806;28;20106;-70
2023/12/31 17:39:50;;;;;;;57.03;36.35;;;;;;;;;;5050160;28;20059;-69
2023/12/31 17:42:55;;;;;;;46.88;32.67;;;;;;;;;;5049974;28;20056;-70
2023/12/31 17:45:59;;;;;;;57.13;35.20;;;;;;;;;;5097139;27;20040;-71
2023/12/31 17:49:03;;;;;;;45.33;30.90;;;;;;;;;;5049679;28;20213;-70